sensor_id;sensor_type;location;lat;lon;timestamp;P1;durP1;ratioP1;P2;durP2;ratioP2
38238;SDS011;24035;48.900;9.188;2022-08-03T00:01:18;3.42;;;1.13;;
38238;SDS011;24035;48.900;9.188;2022-08-03T00:03:44;2.88;;;1.30;;
38238;SDS011;24035;48.900;9.188;2022-08-03T00:06:09;5.45;;;1.30;;
38238;SDS011;24035;48.900;9.188;2022-08-03T00:08:35;2.30;;;1.08;;
38238;SDS011;24035;48.900;9.188;2022-08-03T00:11:01;4.93;;;1.50;;
38238;SDS011;24035;48.900;9.188;2022-08-03T00:13:27;4.32;;;1.40;;
38238;SDS011;24035;48.900;9.188;2022-08-03T00:15:53;3.90;;;1.67;;
38238;SDS011;24035;48.900;9.188;2022-08-03T00:18:18;3.08;;;1.33;;
38238;SDS011;24035;48.900;9.188;2022-08-03T00:20:44;3.55;;;1.45;;
38238;SDS011;24035;48.900;9.188;2022-08-03T00:23:10;4.35;;;1.52;;
38238;SDS011;24035;48.900;9.188;2022-08-03T00:25:36;3.92;;;1.30;;
38238;SDS011;24035;48.900;9.188;2022-08-03T00:28:03;2.78;;;1.27;;
38238;SDS011;24035;48.900;9.188;2022-08-03T00:30:29;4.75;;;1.52;;
38238;SDS011;24035;48.900;9.188;2022-08-03T00:32:55;3.05;;;1.55;;
38238;SDS011;24035;48.900;9.188;2022-08-03T00:35:22;4.13;;;1.50;;
38238;SDS011;24035;48.900;9.188;2022-08-03T00:37:47;3.40;;;1.30;;
38238;SDS011;24035;48.900;9.188;2022-08-03T00:40:14;4.40;;;1.50;;
38238;SDS011;24035;48.900;9.188;2022-08-03T00:45:23;12.60;;;1.85;;
38238;SDS011;24035;48.900;9.188;2022-08-03T00:47:57;3.53;;;1.63;;
38238;SDS011;24035;48.900;9.188;2022-08-03T00:50:24;3.00;;;1.45;;
38238;SDS011;24035;48.900;9.188;2022-08-03T00:52:51;5.05;;;1.38;;
38238;SDS011;24035;48.900;9.188;2022-08-03T00:55:18;4.32;;;1.60;;
38238;SDS011;24035;48.900;9.188;2022-08-03T00:57:44;3.00;;;1.17;;
38238;SDS011;24035;48.900;9.188;2022-08-03T01:00:11;3.55;;;1.52;;
38238;SDS011;24035;48.900;9.188;2022-08-03T01:02:39;2.60;;;1.13;;
38238;SDS011;24035;48.900;9.188;2022-08-03T01:05:05;5.78;;;2.17;;
38238;SDS011;24035;48.900;9.188;2022-08-03T01:13:20;4.85;;;1.70;;
38238;SDS011;24035;48.900;9.188;2022-08-03T01:16:08;4.03;;;1.65;;
38238;SDS011;24035;48.900;9.188;2022-08-03T01:21:39;3.58;;;1.42;;
38238;SDS011;24035;48.900;9.188;2022-08-03T01:27:17;4.65;;;1.40;;
38238;SDS011;24035;48.900;9.188;2022-08-03T01:32:24;3.40;;;1.50;;
38238;SDS011;24035;48.900;9.188;2022-08-03T01:35:17;3.47;;;1.73;;
38238;SDS011;24035;48.900;9.188;2022-08-03T01:37:59;3.33;;;1.40;;
38238;SDS011;24035;48.900;9.188;2022-08-03T01:40:27;2.85;;;1.30;;
38238;SDS011;24035;48.900;9.188;2022-08-03T01:42:56;4.78;;;1.42;;
38238;SDS011;24035;48.900;9.188;2022-08-03T01:45:26;3.13;;;1.42;;
38238;SDS011;24035;48.900;9.188;2022-08-03T01:47:53;3.30;;;1.40;;
38238;SDS011;24035;48.900;9.188;2022-08-03T01:50:25;3.47;;;1.70;;
38238;SDS011;24035;48.900;9.188;2022-08-03T01:52:53;3.30;;;1.58;;
38238;SDS011;24035;48.900;9.188;2022-08-03T01:55:20;3.53;;;1.50;;
38238;SDS011;24035;48.900;9.188;2022-08-03T01:57:47;3.67;;;1.77;;
38238;SDS011;24035;48.900;9.188;2022-08-03T02:00:15;3.20;;;1.65;;
38238;SDS011;24035;48.900;9.188;2022-08-03T02:02:41;3.92;;;1.88;;
38238;SDS011;24035;48.900;9.188;2022-08-03T02:05:09;4.05;;;1.35;;
38238;SDS011;24035;48.900;9.188;2022-08-03T02:07:36;7.10;;;2.00;;
38238;SDS011;24035;48.900;9.188;2022-08-03T02:10:04;4.13;;;1.85;;
38238;SDS011;24035;48.900;9.188;2022-08-03T02:12:31;3.90;;;1.90;;
38238;SDS011;24035;48.900;9.188;2022-08-03T02:14:58;5.10;;;1.83;;
38238;SDS011;24035;48.900;9.188;2022-08-03T02:17:25;4.53;;;2.17;;
38238;SDS011;24035;48.900;9.188;2022-08-03T02:19:52;3.20;;;1.80;;
38238;SDS011;24035;48.900;9.188;2022-08-03T02:22:20;3.45;;;1.73;;
38238;SDS011;24035;48.900;9.188;2022-08-03T02:24:48;3.75;;;1.60;;
38238;SDS011;24035;48.900;9.188;2022-08-03T02:27:19;4.35;;;1.80;;
38238;SDS011;24035;48.900;9.188;2022-08-03T02:29:51;3.60;;;1.85;;
38238;SDS011;24035;48.900;9.188;2022-08-03T02:32:29;4.60;;;1.45;;
38238;SDS011;24035;48.900;9.188;2022-08-03T02:34:58;4.07;;;1.88;;
38238;SDS011;24035;48.900;9.188;2022-08-03T02:37:27;6.35;;;2.00;;
38238;SDS011;24035;48.900;9.188;2022-08-03T02:40:02;4.32;;;1.90;;
38238;SDS011;24035;48.900;9.188;2022-08-03T02:42:30;4.93;;;2.15;;
38238;SDS011;24035;48.900;9.188;2022-08-03T02:44:57;5.60;;;1.92;;
38238;SDS011;24035;48.900;9.188;2022-08-03T02:47:26;3.50;;;1.88;;
38238;SDS011;24035;48.900;9.188;2022-08-03T02:49:54;3.53;;;1.83;;
38238;SDS011;24035;48.900;9.188;2022-08-03T02:52:23;3.10;;;1.63;;
38238;SDS011;24035;48.900;9.188;2022-08-03T02:54:52;4.25;;;1.88;;
38238;SDS011;24035;48.900;9.188;2022-08-03T02:57:21;4.25;;;1.90;;
38238;SDS011;24035;48.900;9.188;2022-08-03T02:59:49;3.85;;;1.70;;
38238;SDS011;24035;48.900;9.188;2022-08-03T03:02:17;4.80;;;1.63;;
38238;SDS011;24035;48.900;9.188;2022-08-03T03:04:43;3.63;;;1.80;;
38238;SDS011;24035;48.900;9.188;2022-08-03T03:07:11;3.83;;;1.85;;
38238;SDS011;24035;48.900;9.188;2022-08-03T03:09:38;4.30;;;1.70;;
38238;SDS011;24035;48.900;9.188;2022-08-03T03:12:06;4.05;;;1.90;;
38238;SDS011;24035;48.900;9.188;2022-08-03T03:14:33;3.20;;;1.70;;
38238;SDS011;24035;48.900;9.188;2022-08-03T03:17:01;4.70;;;1.88;;
38238;SDS011;24035;48.900;9.188;2022-08-03T03:19:27;3.63;;;1.95;;
38238;SDS011;24035;48.900;9.188;2022-08-03T03:21:54;5.18;;;1.90;;
38238;SDS011;24035;48.900;9.188;2022-08-03T03:24:22;5.18;;;2.00;;
38238;SDS011;24035;48.900;9.188;2022-08-03T03:26:48;3.25;;;1.50;;
38238;SDS011;24035;48.900;9.188;2022-08-03T03:29:14;4.78;;;2.30;;
38238;SDS011;24035;48.900;9.188;2022-08-03T03:31:40;4.25;;;2.00;;
38238;SDS011;24035;48.900;9.188;2022-08-03T03:34:06;5.72;;;1.90;;
38238;SDS011;24035;48.900;9.188;2022-08-03T03:36:32;5.00;;;1.75;;
38238;SDS011;24035;48.900;9.188;2022-08-03T03:38:58;5.15;;;2.20;;
38238;SDS011;24035;48.900;9.188;2022-08-03T03:41:23;5.93;;;2.40;;
38238;SDS011;24035;48.900;9.188;2022-08-03T03:43:49;5.53;;;2.00;;
38238;SDS011;24035;48.900;9.188;2022-08-03T03:46:15;3.22;;;1.60;;
38238;SDS011;24035;48.900;9.188;2022-08-03T03:48:41;3.78;;;2.05;;
38238;SDS011;24035;48.900;9.188;2022-08-03T03:51:06;5.35;;;1.90;;
38238;SDS011;24035;48.900;9.188;2022-08-03T03:53:33;3.63;;;1.77;;
38238;SDS011;24035;48.900;9.188;2022-08-03T03:55:58;3.50;;;1.67;;
38238;SDS011;24035;48.900;9.188;2022-08-03T03:58:24;4.28;;;2.15;;
38238;SDS011;24035;48.900;9.188;2022-08-03T04:00:50;5.82;;;2.00;;
38238;SDS011;24035;48.900;9.188;2022-08-03T04:03:17;4.05;;;1.85;;
38238;SDS011;24035;48.900;9.188;2022-08-03T04:05:43;3.95;;;1.55;;
38238;SDS011;24035;48.900;9.188;2022-08-03T04:08:28;4.03;;;1.77;;
38238;SDS011;24035;48.900;9.188;2022-08-03T04:11:16;3.78;;;1.90;;
38238;SDS011;24035;48.900;9.188;2022-08-03T04:13:48;4.63;;;2.03;;
38238;SDS011;24035;48.900;9.188;2022-08-03T04:16:17;4.68;;;1.95;;
38238;SDS011;24035;48.900;9.188;2022-08-03T04:18:48;3.58;;;1.80;;
38238;SDS011;24035;48.900;9.188;2022-08-03T04:21:16;3.78;;;1.75;;
38238;SDS011;24035;48.900;9.188;2022-08-03T04:23:46;3.75;;;1.65;;
38238;SDS011;24035;48.900;9.188;2022-08-03T04:26:15;4.70;;;1.77;;
38238;SDS011;24035;48.900;9.188;2022-08-03T04:28:45;4.38;;;1.83;;
38238;SDS011;24035;48.900;9.188;2022-08-03T04:31:13;4.15;;;1.67;;
38238;SDS011;24035;48.900;9.188;2022-08-03T04:33:41;3.80;;;1.65;;
38238;SDS011;24035;48.900;9.188;2022-08-03T04:36:10;4.00;;;1.92;;
38238;SDS011;24035;48.900;9.188;2022-08-03T04:38:50;4.25;;;2.03;;
38238;SDS011;24035;48.900;9.188;2022-08-03T04:41:19;4.95;;;2.15;;
38238;SDS011;24035;48.900;9.188;2022-08-03T04:43:48;4.13;;;1.95;;
38238;SDS011;24035;48.900;9.188;2022-08-03T04:46:16;3.75;;;1.92;;
38238;SDS011;24035;48.900;9.188;2022-08-03T04:48:46;3.50;;;1.63;;
38238;SDS011;24035;48.900;9.188;2022-08-03T04:51:12;3.85;;;1.75;;
38238;SDS011;24035;48.900;9.188;2022-08-03T04:53:38;3.50;;;1.75;;
38238;SDS011;24035;48.900;9.188;2022-08-03T04:56:05;6.95;;;1.90;;
38238;SDS011;24035;48.900;9.188;2022-08-03T04:58:31;3.88;;;1.80;;
38238;SDS011;24035;48.900;9.188;2022-08-03T05:00:57;3.78;;;1.73;;
38238;SDS011;24035;48.900;9.188;2022-08-03T05:03:23;5.15;;;1.88;;
38238;SDS011;24035;48.900;9.188;2022-08-03T05:05:49;6.18;;;1.80;;
38238;SDS011;24035;48.900;9.188;2022-08-03T05:08:15;4.00;;;1.75;;
38238;SDS011;24035;48.900;9.188;2022-08-03T05:10:41;4.00;;;2.10;;
38238;SDS011;24035;48.900;9.188;2022-08-03T05:13:07;5.13;;;2.85;;
38238;SDS011;24035;48.900;9.188;2022-08-03T05:15:36;4.03;;;1.90;;
38238;SDS011;24035;48.900;9.188;2022-08-03T05:18:02;3.50;;;1.65;;
38238;SDS011;24035;48.900;9.188;2022-08-03T05:20:27;6.00;;;2.40;;
38238;SDS011;24035;48.900;9.188;2022-08-03T05:22:53;5.72;;;2.30;;
38238;SDS011;24035;48.900;9.188;2022-08-03T05:25:19;6.68;;;3.25;;
38238;SDS011;24035;48.900;9.188;2022-08-03T05:27:44;4.30;;;2.10;;
38238;SDS011;24035;48.900;9.188;2022-08-03T05:30:10;3.72;;;1.88;;
38238;SDS011;24035;48.900;9.188;2022-08-03T05:32:36;3.90;;;1.95;;
38238;SDS011;24035;48.900;9.188;2022-08-03T05:35:02;3.42;;;2.10;;
38238;SDS011;24035;48.900;9.188;2022-08-03T05:37:28;3.15;;;1.77;;
38238;SDS011;24035;48.900;9.188;2022-08-03T05:39:53;3.88;;;2.00;;
38238;SDS011;24035;48.900;9.188;2022-08-03T05:42:19;3.97;;;2.20;;
38238;SDS011;24035;48.900;9.188;2022-08-03T05:44:45;3.75;;;1.90;;
38238;SDS011;24035;48.900;9.188;2022-08-03T05:47:10;4.75;;;2.30;;
38238;SDS011;24035;48.900;9.188;2022-08-03T05:49:36;5.40;;;1.80;;
38238;SDS011;24035;48.900;9.188;2022-08-03T05:52:02;6.97;;;1.98;;
38238;SDS011;24035;48.900;9.188;2022-08-03T05:54:28;3.72;;;2.00;;
38238;SDS011;24035;48.900;9.188;2022-08-03T05:56:53;4.45;;;2.13;;
38238;SDS011;24035;48.900;9.188;2022-08-03T05:59:19;3.67;;;2.10;;
38238;SDS011;24035;48.900;9.188;2022-08-03T06:01:46;5.95;;;1.80;;
38238;SDS011;24035;48.900;9.188;2022-08-03T06:04:11;3.10;;;1.83;;
38238;SDS011;24035;48.900;9.188;2022-08-03T06:06:37;3.88;;;2.20;;
38238;SDS011;24035;48.900;9.188;2022-08-03T06:09:03;7.70;;;2.13;;
38238;SDS011;24035;48.900;9.188;2022-08-03T06:11:28;4.85;;;1.98;;
38238;SDS011;24035;48.900;9.188;2022-08-03T06:13:54;4.00;;;2.00;;
38238;SDS011;24035;48.900;9.188;2022-08-03T06:16:20;3.08;;;1.77;;
38238;SDS011;24035;48.900;9.188;2022-08-03T06:18:45;4.40;;;2.20;;
38238;SDS011;24035;48.900;9.188;2022-08-03T06:21:11;3.95;;;2.00;;
38238;SDS011;24035;48.900;9.188;2022-08-03T06:23:37;3.58;;;2.00;;
38238;SDS011;24035;48.900;9.188;2022-08-03T06:26:02;6.53;;;2.22;;
38238;SDS011;24035;48.900;9.188;2022-08-03T06:28:28;5.07;;;2.08;;
38238;SDS011;24035;48.900;9.188;2022-08-03T06:30:54;4.60;;;1.92;;
38238;SDS011;24035;48.900;9.188;2022-08-03T06:33:19;3.30;;;1.80;;
38238;SDS011;24035;48.900;9.188;2022-08-03T06:35:45;3.30;;;1.77;;
38238;SDS011;24035;48.900;9.188;2022-08-03T06:38:11;4.35;;;2.00;;
38238;SDS011;24035;48.900;9.188;2022-08-03T06:40:37;3.28;;;1.80;;
38238;SDS011;24035;48.900;9.188;2022-08-03T06:43:06;3.42;;;1.95;;
38238;SDS011;24035;48.900;9.188;2022-08-03T06:45:32;3.42;;;1.90;;
38238;SDS011;24035;48.900;9.188;2022-08-03T06:48:02;2.88;;;1.45;;
38238;SDS011;24035;48.900;9.188;2022-08-03T06:50:30;2.70;;;1.55;;
38238;SDS011;24035;48.900;9.188;2022-08-03T06:52:57;2.53;;;1.30;;
38238;SDS011;24035;48.900;9.188;2022-08-03T06:55:23;2.90;;;1.30;;
38238;SDS011;24035;48.900;9.188;2022-08-03T06:57:48;3.45;;;1.50;;
38238;SDS011;24035;48.900;9.188;2022-08-03T07:00:14;3.25;;;1.30;;
38238;SDS011;24035;48.900;9.188;2022-08-03T07:02:40;2.97;;;1.60;;
38238;SDS011;24035;48.900;9.188;2022-08-03T07:05:06;3.35;;;1.60;;
38238;SDS011;24035;48.900;9.188;2022-08-03T07:07:33;2.30;;;1.30;;
38238;SDS011;24035;48.900;9.188;2022-08-03T07:09:58;2.58;;;1.40;;
38238;SDS011;24035;48.900;9.188;2022-08-03T07:12:25;2.85;;;1.40;;
38238;SDS011;24035;48.900;9.188;2022-08-03T07:14:52;6.78;;;1.90;;
38238;SDS011;24035;48.900;9.188;2022-08-03T07:17:18;2.55;;;1.25;;
38238;SDS011;24035;48.900;9.188;2022-08-03T07:19:43;2.92;;;1.67;;
38238;SDS011;24035;48.900;9.188;2022-08-03T07:22:09;2.92;;;1.45;;
38238;SDS011;24035;48.900;9.188;2022-08-03T07:24:35;2.92;;;1.40;;
38238;SDS011;24035;48.900;9.188;2022-08-03T07:27:01;2.72;;;1.40;;
38238;SDS011;24035;48.900;9.188;2022-08-03T07:29:27;3.05;;;1.30;;
38238;SDS011;24035;48.900;9.188;2022-08-03T07:31:52;3.53;;;1.35;;
38238;SDS011;24035;48.900;9.188;2022-08-03T07:34:18;4.07;;;1.40;;
38238;SDS011;24035;48.900;9.188;2022-08-03T07:36:44;2.70;;;1.35;;
38238;SDS011;24035;48.900;9.188;2022-08-03T07:39:09;2.50;;;1.30;;
38238;SDS011;24035;48.900;9.188;2022-08-03T07:41:35;4.57;;;1.50;;
38238;SDS011;24035;48.900;9.188;2022-08-03T07:44:01;2.40;;;1.45;;
38238;SDS011;24035;48.900;9.188;2022-08-03T07:46:27;3.25;;;1.42;;
38238;SDS011;24035;48.900;9.188;2022-08-03T07:48:53;2.90;;;1.45;;
38238;SDS011;24035;48.900;9.188;2022-08-03T07:51:18;2.60;;;1.30;;
38238;SDS011;24035;48.900;9.188;2022-08-03T07:53:44;2.42;;;1.27;;
38238;SDS011;24035;48.900;9.188;2022-08-03T07:56:10;2.40;;;1.20;;
38238;SDS011;24035;48.900;9.188;2022-08-03T07:58:35;2.13;;;1.23;;
38238;SDS011;24035;48.900;9.188;2022-08-03T08:01:01;4.20;;;1.73;;
38238;SDS011;24035;48.900;9.188;2022-08-03T08:03:27;2.90;;;1.38;;
38238;SDS011;24035;48.900;9.188;2022-08-03T08:05:52;2.80;;;1.30;;
38238;SDS011;24035;48.900;9.188;2022-08-03T08:08:19;2.30;;;1.10;;
38238;SDS011;24035;48.900;9.188;2022-08-03T08:10:45;2.72;;;1.10;;
38238;SDS011;24035;48.900;9.188;2022-08-03T08:13:11;2.92;;;1.40;;
38238;SDS011;24035;48.900;9.188;2022-08-03T08:15:37;3.03;;;1.10;;
38238;SDS011;24035;48.900;9.188;2022-08-03T08:18:02;2.17;;;1.05;;
38238;SDS011;24035;48.900;9.188;2022-08-03T08:20:29;2.22;;;1.10;;
38238;SDS011;24035;48.900;9.188;2022-08-03T08:22:59;2.35;;;1.25;;
38238;SDS011;24035;48.900;9.188;2022-08-03T08:25:26;2.20;;;1.20;;
38238;SDS011;24035;48.900;9.188;2022-08-03T08:27:52;2.75;;;1.00;;
38238;SDS011;24035;48.900;9.188;2022-08-03T08:30:19;2.03;;;0.90;;
38238;SDS011;24035;48.900;9.188;2022-08-03T08:32:46;2.53;;;1.20;;
38238;SDS011;24035;48.900;9.188;2022-08-03T08:35:13;2.08;;;1.00;;
38238;SDS011;24035;48.900;9.188;2022-08-03T08:37:39;3.97;;;1.15;;
38238;SDS011;24035;48.900;9.188;2022-08-03T08:40:06;1.60;;;0.85;;
38238;SDS011;24035;48.900;9.188;2022-08-03T08:42:32;4.55;;;1.05;;
38238;SDS011;24035;48.900;9.188;2022-08-03T08:45:02;2.17;;;1.13;;
38238;SDS011;24035;48.900;9.188;2022-08-03T08:47:30;1.45;;;0.73;;
38238;SDS011;24035;48.900;9.188;2022-08-03T08:49:57;1.92;;;0.80;;
38238;SDS011;24035;48.900;9.188;2022-08-03T08:52:25;2.35;;;0.88;;
38238;SDS011;24035;48.900;9.188;2022-08-03T08:54:54;5.00;;;0.90;;
38238;SDS011;24035;48.900;9.188;2022-08-03T08:57:29;1.50;;;0.88;;
38238;SDS011;24035;48.900;9.188;2022-08-03T08:59:58;1.75;;;0.88;;
38238;SDS011;24035;48.900;9.188;2022-08-03T09:02:27;2.70;;;0.88;;
38238;SDS011;24035;48.900;9.188;2022-08-03T09:04:53;1.88;;;0.95;;
38238;SDS011;24035;48.900;9.188;2022-08-03T09:07:20;1.58;;;0.80;;
38238;SDS011;24035;48.900;9.188;2022-08-03T09:09:46;1.48;;;0.68;;
38238;SDS011;24035;48.900;9.188;2022-08-03T09:12:12;1.88;;;0.88;;
38238;SDS011;24035;48.900;9.188;2022-08-03T09:14:38;1.77;;;0.90;;
38238;SDS011;24035;48.900;9.188;2022-08-03T09:17:03;7.07;;;1.02;;
38238;SDS011;24035;48.900;9.188;2022-08-03T09:19:30;1.55;;;0.80;;
38238;SDS011;24035;48.900;9.188;2022-08-03T09:24:37;2.60;;;0.80;;
38238;SDS011;24035;48.900;9.188;2022-08-03T09:27:17;2.05;;;0.80;;
38238;SDS011;24035;48.900;9.188;2022-08-03T09:29:46;1.90;;;0.82;;
38238;SDS011;24035;48.900;9.188;2022-08-03T09:32:13;2.42;;;0.90;;
38238;SDS011;24035;48.900;9.188;2022-08-03T09:34:38;2.13;;;0.90;;
38238;SDS011;24035;48.900;9.188;2022-08-03T09:37:07;5.53;;;1.15;;
38238;SDS011;24035;48.900;9.188;2022-08-03T09:39:38;2.20;;;0.93;;
38238;SDS011;24035;48.900;9.188;2022-08-03T09:42:05;1.77;;;0.80;;
38238;SDS011;24035;48.900;9.188;2022-08-03T09:44:36;2.60;;;1.00;;
38238;SDS011;24035;48.900;9.188;2022-08-03T09:47:06;1.80;;;0.90;;
38238;SDS011;24035;48.900;9.188;2022-08-03T09:49:32;2.33;;;0.98;;
38238;SDS011;24035;48.900;9.188;2022-08-03T09:52:01;2.47;;;1.23;;
38238;SDS011;24035;48.900;9.188;2022-08-03T09:54:37;1.55;;;0.70;;
38238;SDS011;24035;48.900;9.188;2022-08-03T09:57:03;2.22;;;1.13;;
38238;SDS011;24035;48.900;9.188;2022-08-03T09:59:29;1.58;;;0.73;;
38238;SDS011;24035;48.900;9.188;2022-08-03T10:01:56;1.90;;;0.95;;
38238;SDS011;24035;48.900;9.188;2022-08-03T10:04:23;2.30;;;0.82;;
38238;SDS011;24035;48.900;9.188;2022-08-03T10:07:06;2.03;;;0.90;;
38238;SDS011;24035;48.900;9.188;2022-08-03T10:09:33;1.92;;;0.88;;
38238;SDS011;24035;48.900;9.188;2022-08-03T10:12:09;2.50;;;1.00;;
38238;SDS011;24035;48.900;9.188;2022-08-03T10:14:37;3.00;;;1.73;;
38238;SDS011;24035;48.900;9.188;2022-08-03T10:17:05;2.17;;;0.90;;
38238;SDS011;24035;48.900;9.188;2022-08-03T10:19:32;2.08;;;0.88;;
38238;SDS011;24035;48.900;9.188;2022-08-03T10:22:01;4.13;;;1.05;;
38238;SDS011;24035;48.900;9.188;2022-08-03T10:24:38;3.28;;;1.00;;
38238;SDS011;24035;48.900;9.188;2022-08-03T10:27:09;1.90;;;0.80;;
38238;SDS011;24035;48.900;9.188;2022-08-03T10:29:37;2.63;;;1.00;;
38238;SDS011;24035;48.900;9.188;2022-08-03T10:32:08;1.88;;;0.90;;
38238;SDS011;24035;48.900;9.188;2022-08-03T10:37:07;1.90;;;1.00;;
38238;SDS011;24035;48.900;9.188;2022-08-03T10:39:35;4.18;;;0.90;;
38238;SDS011;24035;48.900;9.188;2022-08-03T10:42:01;2.22;;;0.90;;
38238;SDS011;24035;48.900;9.188;2022-08-03T10:44:29;2.00;;;1.00;;
38238;SDS011;24035;48.900;9.188;2022-08-03T10:46:57;2.10;;;0.88;;
38238;SDS011;24035;48.900;9.188;2022-08-03T10:49:24;2.22;;;1.02;;
38238;SDS011;24035;48.900;9.188;2022-08-03T10:51:50;2.08;;;1.00;;
38238;SDS011;24035;48.900;9.188;2022-08-03T10:57:47;3.53;;;0.90;;
38238;SDS011;24035;48.900;9.188;2022-08-03T11:00:21;2.30;;;1.05;;
38238;SDS011;24035;48.900;9.188;2022-08-03T11:05:50;3.80;;;1.10;;
38238;SDS011;24035;48.900;9.188;2022-08-03T11:08:19;1.88;;;0.80;;
38238;SDS011;24035;48.900;9.188;2022-08-03T11:10:54;1.85;;;1.05;;
38238;SDS011;24035;48.900;9.188;2022-08-03T11:13:25;1.75;;;0.82;;
38238;SDS011;24035;48.900;9.188;2022-08-03T11:15:55;2.15;;;1.00;;
38238;SDS011;24035;48.900;9.188;2022-08-03T11:18:24;2.28;;;0.95;;
38238;SDS011;24035;48.900;9.188;2022-08-03T11:20:54;1.67;;;0.93;;
38238;SDS011;24035;48.900;9.188;2022-08-03T11:28:43;2.58;;;0.93;;
38238;SDS011;24035;48.900;9.188;2022-08-03T11:36:28;2.58;;;1.05;;
38238;SDS011;24035;48.900;9.188;2022-08-03T11:39:13;2.45;;;1.02;;
38238;SDS011;24035;48.900;9.188;2022-08-03T11:41:41;1.60;;;0.80;;
38238;SDS011;24035;48.900;9.188;2022-08-03T11:44:07;1.63;;;0.80;;
38238;SDS011;24035;48.900;9.188;2022-08-03T11:46:36;1.67;;;0.82;;
38238;SDS011;24035;48.900;9.188;2022-08-03T11:49:03;1.42;;;0.73;;
38238;SDS011;24035;48.900;9.188;2022-08-03T11:51:30;2.58;;;1.00;;
38238;SDS011;24035;48.900;9.188;2022-08-03T11:54:04;1.88;;;0.95;;
38238;SDS011;24035;48.900;9.188;2022-08-03T11:56:44;2.83;;;1.10;;
38238;SDS011;24035;48.900;9.188;2022-08-03T11:59:11;2.55;;;0.90;;
38238;SDS011;24035;48.900;9.188;2022-08-03T12:01:36;2.78;;;0.93;;
38238;SDS011;24035;48.900;9.188;2022-08-03T12:04:04;2.42;;;0.80;;
38238;SDS011;24035;48.900;9.188;2022-08-03T12:06:30;3.58;;;0.90;;
38238;SDS011;24035;48.900;9.188;2022-08-03T12:09:16;2.20;;;1.00;;
38238;SDS011;24035;48.900;9.188;2022-08-03T12:11:42;1.55;;;0.80;;
38238;SDS011;24035;48.900;9.188;2022-08-03T12:14:15;2.08;;;1.00;;
38238;SDS011;24035;48.900;9.188;2022-08-03T12:16:43;1.80;;;0.90;;
38238;SDS011;24035;48.900;9.188;2022-08-03T12:19:12;1.40;;;0.75;;
38238;SDS011;24035;48.900;9.188;2022-08-03T12:21:48;2.42;;;1.38;;
38238;SDS011;24035;48.900;9.188;2022-08-03T12:24:14;1.65;;;0.73;;
38238;SDS011;24035;48.900;9.188;2022-08-03T12:26:42;1.67;;;0.80;;
38238;SDS011;24035;48.900;9.188;2022-08-03T12:29:15;3.20;;;1.08;;
38238;SDS011;24035;48.900;9.188;2022-08-03T12:31:45;2.10;;;0.80;;
38238;SDS011;24035;48.900;9.188;2022-08-03T12:34:11;2.22;;;1.15;;
38238;SDS011;24035;48.900;9.188;2022-08-03T12:36:37;1.85;;;0.73;;
38238;SDS011;24035;48.900;9.188;2022-08-03T12:39:23;2.03;;;0.98;;
38238;SDS011;24035;48.900;9.188;2022-08-03T12:41:54;1.73;;;0.80;;
38238;SDS011;24035;48.900;9.188;2022-08-03T12:44:30;2.20;;;0.88;;
38238;SDS011;24035;48.900;9.188;2022-08-03T12:46:58;5.90;;;1.42;;
38238;SDS011;24035;48.900;9.188;2022-08-03T12:49:25;2.17;;;0.93;;
38238;SDS011;24035;48.900;9.188;2022-08-03T12:54:20;1.92;;;0.85;;
38238;SDS011;24035;48.900;9.188;2022-08-03T12:56:58;2.47;;;1.10;;
38238;SDS011;24035;48.900;9.188;2022-08-03T12:59:41;2.80;;;0.88;;
38238;SDS011;24035;48.900;9.188;2022-08-03T13:02:19;2.33;;;1.03;;
38238;SDS011;24035;48.900;9.188;2022-08-03T13:04:50;2.00;;;0.90;;
38238;SDS011;24035;48.900;9.188;2022-08-03T13:07:17;1.42;;;0.80;;
38238;SDS011;24035;48.900;9.188;2022-08-03T13:09:47;3.17;;;0.90;;
38238;SDS011;24035;48.900;9.188;2022-08-03T13:12:14;2.40;;;0.85;;
38238;SDS011;24035;48.900;9.188;2022-08-03T13:14:40;1.70;;;0.90;;
38238;SDS011;24035;48.900;9.188;2022-08-03T13:17:07;2.50;;;0.90;;
38238;SDS011;24035;48.900;9.188;2022-08-03T13:19:33;3.20;;;0.98;;
38238;SDS011;24035;48.900;9.188;2022-08-03T13:22:09;2.33;;;1.17;;
38238;SDS011;24035;48.900;9.188;2022-08-03T13:24:35;2.28;;;1.00;;
38238;SDS011;24035;48.900;9.188;2022-08-03T13:27:01;2.00;;;0.80;;
38238;SDS011;24035;48.900;9.188;2022-08-03T13:29:29;2.05;;;1.13;;
38238;SDS011;24035;48.900;9.188;2022-08-03T13:31:54;2.15;;;1.00;;
38238;SDS011;24035;48.900;9.188;2022-08-03T13:34:20;1.52;;;0.70;;
38238;SDS011;24035;48.900;9.188;2022-08-03T13:36:46;2.03;;;0.98;;
38238;SDS011;24035;48.900;9.188;2022-08-03T13:39:11;1.85;;;0.82;;
38238;SDS011;24035;48.900;9.188;2022-08-03T13:41:37;2.47;;;1.10;;
38238;SDS011;24035;48.900;9.188;2022-08-03T13:44:03;2.58;;;0.88;;
38238;SDS011;24035;48.900;9.188;2022-08-03T13:46:28;1.77;;;0.70;;
38238;SDS011;24035;48.900;9.188;2022-08-03T13:48:54;2.47;;;1.10;;
38238;SDS011;24035;48.900;9.188;2022-08-03T13:51:19;3.08;;;1.05;;
38238;SDS011;24035;48.900;9.188;2022-08-03T13:53:45;1.88;;;0.90;;
38238;SDS011;24035;48.900;9.188;2022-08-03T13:56:11;1.95;;;0.90;;
38238;SDS011;24035;48.900;9.188;2022-08-03T13:58:36;1.95;;;0.90;;
38238;SDS011;24035;48.900;9.188;2022-08-03T14:01:02;3.33;;;0.80;;
38238;SDS011;24035;48.900;9.188;2022-08-03T14:03:28;5.38;;;1.05;;
38238;SDS011;24035;48.900;9.188;2022-08-03T14:05:53;1.50;;;0.80;;
38238;SDS011;24035;48.900;9.188;2022-08-03T14:08:19;1.30;;;0.70;;
38238;SDS011;24035;48.900;9.188;2022-08-03T14:10:44;2.47;;;1.00;;
38238;SDS011;24035;48.900;9.188;2022-08-03T14:13:11;1.63;;;0.80;;
38238;SDS011;24035;48.900;9.188;2022-08-03T14:15:39;2.33;;;0.95;;
38238;SDS011;24035;48.900;9.188;2022-08-03T14:18:05;0.90;;;0.55;;
38238;SDS011;24035;48.900;9.188;2022-08-03T14:20:31;1.88;;;0.90;;
38238;SDS011;24035;48.900;9.188;2022-08-03T14:22:57;2.13;;;0.90;;
38238;SDS011;24035;48.900;9.188;2022-08-03T14:25:23;2.80;;;1.10;;
38238;SDS011;24035;48.900;9.188;2022-08-03T14:27:48;2.20;;;0.80;;
38238;SDS011;24035;48.900;9.188;2022-08-03T14:30:14;1.52;;;0.90;;
38238;SDS011;24035;48.900;9.188;2022-08-03T14:32:40;2.15;;;1.00;;
38238;SDS011;24035;48.900;9.188;2022-08-03T14:35:06;2.47;;;0.98;;
38238;SDS011;24035;48.900;9.188;2022-08-03T14:37:32;2.05;;;0.98;;
38238;SDS011;24035;48.900;9.188;2022-08-03T14:39:58;1.92;;;0.90;;
38238;SDS011;24035;48.900;9.188;2022-08-03T14:42:24;2.78;;;0.90;;
38238;SDS011;24035;48.900;9.188;2022-08-03T14:44:49;1.58;;;0.75;;
38238;SDS011;24035;48.900;9.188;2022-08-03T14:47:15;1.75;;;1.00;;
38238;SDS011;24035;48.900;9.188;2022-08-03T14:49:41;1.65;;;0.90;;
38238;SDS011;24035;48.900;9.188;2022-08-03T14:52:07;1.65;;;0.82;;
38238;SDS011;24035;48.900;9.188;2022-08-03T14:54:33;1.67;;;0.88;;
38238;SDS011;24035;48.900;9.188;2022-08-03T14:56:59;2.33;;;0.88;;
38238;SDS011;24035;48.900;9.188;2022-08-03T14:59:24;1.58;;;0.77;;
38238;SDS011;24035;48.900;9.188;2022-08-03T15:01:51;1.90;;;0.90;;
38238;SDS011;24035;48.900;9.188;2022-08-03T15:04:16;2.28;;;1.10;;
38238;SDS011;24035;48.900;9.188;2022-08-03T15:06:42;3.20;;;1.10;;
38238;SDS011;24035;48.900;9.188;2022-08-03T15:09:08;2.58;;;0.93;;
38238;SDS011;24035;48.900;9.188;2022-08-03T15:11:33;1.52;;;0.75;;
38238;SDS011;24035;48.900;9.188;2022-08-03T15:14:00;2.00;;;0.90;;
38238;SDS011;24035;48.900;9.188;2022-08-03T15:16:26;3.20;;;0.95;;
38238;SDS011;24035;48.900;9.188;2022-08-03T15:18:52;1.60;;;0.70;;
38238;SDS011;24035;48.900;9.188;2022-08-03T15:21:18;2.95;;;1.30;;
38238;SDS011;24035;48.900;9.188;2022-08-03T15:23:43;2.00;;;0.75;;
38238;SDS011;24035;48.900;9.188;2022-08-03T15:26:09;3.58;;;1.30;;
38238;SDS011;24035;48.900;9.188;2022-08-03T15:28:35;1.60;;;0.82;;
38238;SDS011;24035;48.900;9.188;2022-08-03T15:31:00;1.80;;;1.00;;
38238;SDS011;24035;48.900;9.188;2022-08-03T15:33:26;1.83;;;0.77;;